createdAt,value
2019-01-16T00:02:04.730Z,96.80
2019-01-16T00:05:20.740Z,96.80
2019-01-16T00:08:36.015Z,97.00
2019-01-16T00:11:44.806Z,97.00
2019-01-16T00:15:06.978Z,97.10
2019-01-16T00:18:18.815Z,97.50
2019-01-16T00:21:37.433Z,97.60
2019-01-16T00:24:46.465Z,97.50
2019-01-16T00:28:04.812Z,97.50
2019-01-16T00:31:14.012Z,97.70
2019-01-16T00:34:32.296Z,97.80
2019-01-16T00:37:44.003Z,97.90
2019-01-16T00:40:48.195Z,97.90
2019-01-16T00:44:09.278Z,97.80
2019-01-16T00:47:18.308Z,97.80
2019-01-16T00:50:27.051Z,97.50
2019-01-16T00:53:51.091Z,97.70
2019-01-16T00:57:00.281Z,98.60
2019-01-16T01:00:14.143Z,98.40
2019-01-16T01:03:21.044Z,98.00
2019-01-16T01:06:27.109Z,98.00
2019-01-16T01:09:48.978Z,98.40
2019-01-16T01:12:57.718Z,98.30
2019-01-16T01:16:03.788Z,98.30
2019-01-16T01:19:17.040Z,98.00
2019-01-16T01:22:29.055Z,97.90
2019-01-16T01:25:44.175Z,98.00
2019-01-16T01:28:52.917Z,98.10
2019-01-16T01:32:15.181Z,98.40
2019-01-16T01:35:23.897Z,98.00
2019-01-16T01:38:45.330Z,98.00
2019-01-16T01:42:03.321Z,98.10
2019-01-16T01:45:18.751Z,98.30
2019-01-16T01:48:30.512Z,98.40
2019-01-16T01:51:39.994Z,98.40
2019-01-16T01:55:02.354Z,98.50
2019-01-16T01:58:15.842Z,98.40
2019-01-16T02:01:27.937Z,98.50
2019-01-16T02:04:34.343Z,98.70
2019-01-16T02:07:43.072Z,98.40
2019-01-16T02:10:54.612Z,98.50
2019-01-16T02:14:17.000Z,98.60
2019-01-16T02:17:26.157Z,98.50
2019-01-16T02:20:39.363Z,98.50
2019-01-16T02:23:51.268Z,98.60
2019-01-16T02:27:03.077Z,99.00
2019-01-16T02:30:32.102Z,98.70
2019-01-16T02:33:38.179Z,98.70
2019-01-16T02:37:02.399Z,98.80
2019-01-16T02:40:14.445Z,99.00
2019-01-16T02:43:20.506Z,98.80
2019-01-16T02:46:38.240Z,99.00
2019-01-16T02:49:52.854Z,99.30
2019-01-16T02:53:15.017Z,99.00
2019-01-16T02:56:21.091Z,98.70
2019-01-16T02:59:27.163Z,99.30
2019-01-16T03:02:42.280Z,99.10
2019-01-16T03:05:57.317Z,99.40
2019-01-16T03:09:15.203Z,99.80
2019-01-16T03:12:25.346Z,99.90
2019-01-16T03:15:29.554Z,99.90
2019-01-16T03:18:35.967Z,99.90
2019-01-16T03:21:51.352Z,99.90
2019-01-16T03:25:13.392Z,99.90
2019-01-16T03:28:19.465Z,99.80
2019-01-16T03:31:25.545Z,99.90
2019-01-16T03:34:34.389Z,99.80
2019-01-16T03:37:49.544Z,99.80
2019-01-16T03:40:58.534Z,99.90
2019-01-16T03:44:10.139Z,99.90
2019-01-16T03:47:22.041Z,99.30
2019-01-16T03:50:28.414Z,99.20
2019-01-16T03:53:52.310Z,99.20
2019-01-16T03:56:56.507Z,98.90
2019-01-16T04:00:08.413Z,99.10
2019-01-16T04:03:14.482Z,99.10
2019-01-16T04:06:20.840Z,98.70
2019-01-16T04:09:26.902Z,98.90
2019-01-16T04:12:32.987Z,99.10
2019-01-16T04:15:39.338Z,99.30
2019-01-16T04:18:51.329Z,99.20
2019-01-16T04:21:57.413Z,99.40
2019-01-16T04:25:07.369Z,99.50
2019-01-16T04:28:28.103Z,99.70
2019-01-16T04:31:34.186Z,99.90
2019-01-16T04:34:52.407Z,99.90
2019-01-16T04:38:16.571Z,99.90
2019-01-16T04:41:31.343Z,99.90
2019-01-16T04:44:40.392Z,99.90
2019-01-16T04:47:49.685Z,99.90
2019-01-16T04:51:01.787Z,99.90
2019-01-16T04:54:19.637Z,99.90
2019-01-16T04:57:25.778Z,99.90
2019-01-16T05:00:31.852Z,99.90
2019-01-16T05:03:43.649Z,99.90
2019-01-16T05:06:58.610Z,99.90
2019-01-16T05:10:23.111Z,99.90
2019-01-16T05:13:45.316Z,99.90
2019-01-16T05:16:57.767Z,99.90
2019-01-16T05:20:12.563Z,99.90
2019-01-16T05:23:21.313Z,99.90
2019-01-16T05:26:43.865Z,99.90
2019-01-16T05:30:05.301Z,99.90
2019-01-16T05:33:14.049Z,99.90
2019-01-16T05:36:32.708Z,99.90
2019-01-16T05:39:47.387Z,99.90
2019-01-16T05:43:05.199Z,99.90
2019-01-16T05:46:11.576Z,99.90
2019-01-16T05:49:20.308Z,99.90
2019-01-16T05:52:41.422Z,99.90
2019-01-16T05:55:50.321Z,99.90
2019-01-16T05:59:09.598Z,99.80
2019-01-16T06:02:32.067Z,99.60
2019-01-16T06:05:38.142Z,99.20
2019-01-16T06:08:49.960Z,99.10
2019-01-16T06:12:01.824Z,99.40
2019-01-16T06:15:14.656Z,99.70
2019-01-16T06:18:37.102Z,99.70
2019-01-16T06:21:58.440Z,99.80
2019-01-16T06:25:07.351Z,99.90
2019-01-16T06:28:19.135Z,99.90
2019-01-16T06:31:37.144Z,99.90
2019-01-16T06:34:43.566Z,99.90
2019-01-16T06:37:55.975Z,99.90
2019-01-16T06:41:02.068Z,99.90
2019-01-16T06:44:10.863Z,99.60
2019-01-16T06:47:22.364Z,99.30
2019-01-16T06:50:31.466Z,99.50
2019-01-16T06:53:52.810Z,99.70
2019-01-16T06:57:14.925Z,99.90
2019-01-16T07:00:29.835Z,99.90
2019-01-16T07:03:39.166Z,99.90
2019-01-16T07:06:45.508Z,99.90
2019-01-16T07:09:56.173Z,99.90
2019-01-16T07:13:17.190Z,99.90
2019-01-16T07:16:23.268Z,99.90
2019-01-16T07:19:29.727Z,99.90
2019-01-16T07:22:36.295Z,99.90
2019-01-16T07:25:54.670Z,99.90
2019-01-16T07:29:01.018Z,99.90
2019-01-16T07:32:21.030Z,99.90
2019-01-16T07:35:36.125Z,99.90
2019-01-16T07:38:48.391Z,99.90
2019-01-16T07:41:54.471Z,99.90
2019-01-16T07:45:06.457Z,99.90
2019-01-16T07:48:10.976Z,99.90
2019-01-16T07:51:17.051Z,99.90
2019-01-16T07:54:23.127Z,99.90
2019-01-16T07:57:29.207Z,99.90
2019-01-16T08:00:41.230Z,99.90
2019-01-16T08:04:01.569Z,99.90
2019-01-16T08:07:07.707Z,99.90
2019-01-16T08:10:20.957Z,99.90
2019-01-16T08:13:42.819Z,99.90
2019-01-16T08:16:55.094Z,99.90
2019-01-16T08:20:24.682Z,99.90
2019-01-16T08:23:36.995Z,99.90
2019-01-16T08:26:59.413Z,99.90
2019-01-16T08:30:10.161Z,99.90
2019-01-16T08:33:30.964Z,99.60
2019-01-16T08:36:37.052Z,99.30
2019-01-16T08:39:57.775Z,98.80
2019-01-16T08:43:19.866Z,98.30
2019-01-16T08:46:41.165Z,98.00
2019-01-16T08:49:53.472Z,97.60
2019-01-16T08:53:16.016Z,97.40
2019-01-16T08:56:38.871Z,97.20
2019-01-16T08:59:44.966Z,96.90
2019-01-16T09:03:00.124Z,97.00
2019-01-16T09:06:09.665Z,96.90
2019-01-16T09:09:19.652Z,97.50
2019-01-16T09:12:42.096Z,97.70
2019-01-16T09:15:48.187Z,97.90
2019-01-16T09:19:12.402Z,97.70
2019-01-16T09:22:21.343Z,97.50
2019-01-16T09:25:27.439Z,97.10
2019-01-16T09:28:49.946Z,97.10
2019-01-16T09:31:58.707Z,97.00
2019-01-16T09:35:04.813Z,97.10
2019-01-16T09:38:14.805Z,96.60
2019-01-16T09:41:21.164Z,96.60
2019-01-16T09:44:29.960Z,96.30
2019-01-16T09:47:42.200Z,96.00
2019-01-16T09:51:04.408Z,96.00
2019-01-16T09:54:17.880Z,95.80
2019-01-16T09:57:36.192Z,95.90
2019-01-16T10:00:55.454Z,95.70
2019-01-16T10:04:17.968Z,94.80
2019-01-16T10:07:36.174Z,93.70
2019-01-16T10:10:48.271Z,91.50
2019-01-16T10:13:54.361Z,90.90
2019-01-16T10:17:04.161Z,91.10
2019-01-16T10:20:24.522Z,91.60
2019-01-16T10:23:30.978Z,92.50
2019-01-16T10:26:40.210Z,93.10
2019-01-16T10:29:49.061Z,93.40
2019-01-16T10:33:10.468Z,93.90
2019-01-16T10:36:16.628Z,93.80
2019-01-16T10:39:25.645Z,93.30
2019-01-16T10:42:43.783Z,92.00
2019-01-16T10:45:49.876Z,91.10
2019-01-16T10:49:04.943Z,90.40
2019-01-16T10:52:11.316Z,89.90
2019-01-16T10:55:32.165Z,90.80
2019-01-16T10:58:47.156Z,90.40
2019-01-16T11:01:59.080Z,90.20
2019-01-16T11:05:06.135Z,90.30
2019-01-16T11:08:18.376Z,90.10
2019-01-16T11:11:33.418Z,90.20
2019-01-16T11:14:56.017Z,88.80
2019-01-16T11:18:18.388Z,87.30
2019-01-16T11:21:30.449Z,88.30
2019-01-16T11:24:52.986Z,88.30
2019-01-16T11:28:01.786Z,85.00
2019-01-16T11:31:17.996Z,81.60
2019-01-16T11:34:33.380Z,79.80
2019-01-16T11:37:37.603Z,78.10
2019-01-16T11:40:47.867Z,78.40
2019-01-16T11:44:09.798Z,78.90
2019-01-16T11:47:18.696Z,78.20
2019-01-16T11:50:24.783Z,77.20
2019-01-16T11:53:33.852Z,76.80
2019-01-16T11:56:56.190Z,77.10
2019-01-16T12:00:02.322Z,73.80
2019-01-16T12:03:11.191Z,73.70
2019-01-16T12:06:33.427Z,69.70
2019-01-16T12:09:54.895Z,66.20
2019-01-16T12:13:17.160Z,66.10
2019-01-16T12:16:23.290Z,62.90
2019-01-16T12:19:29.721Z,65.00
2019-01-16T12:22:38.753Z,62.60
2019-01-16T12:25:50.859Z,62.50
2019-01-16T12:29:15.257Z,62.00
2019-01-16T12:32:30.414Z,62.90
2019-01-16T12:35:43.896Z,67.00
2019-01-16T12:38:59.024Z,64.00
2019-01-16T12:42:08.089Z,64.40
2019-01-16T12:45:17.487Z,71.40
2019-01-16T12:48:35.609Z,70.80
2019-01-16T12:51:41.712Z,74.00
2019-01-16T12:55:03.002Z,74.20
2019-01-16T12:58:25.217Z,78.50
2019-01-16T13:01:37.337Z,78.10
2019-01-16T13:04:43.431Z,79.00
2019-01-16T13:07:50.087Z,81.10
2019-01-16T13:10:56.188Z,80.10
2019-01-16T13:14:02.540Z,78.10
2019-01-16T13:17:23.487Z,80.80
2019-01-16T13:20:29.579Z,80.90
2019-01-16T13:23:44.486Z,83.80
2019-01-16T13:26:48.779Z,84.30
2019-01-16T13:29:57.598Z,86.20
2019-01-16T13:33:19.751Z,88.10
2019-01-16T13:36:40.838Z,85.70
2019-01-16T13:39:46.938Z,87.10
2019-01-16T13:43:04.995Z,89.10
2019-01-16T13:46:28.041Z,88.80
2019-01-16T13:49:38.021Z,88.80
2019-01-16T13:52:49.617Z,90.10
2019-01-16T13:56:04.210Z,89.50
2019-01-16T13:59:10.299Z,90.20
2019-01-16T14:02:18.817Z,89.70
2019-01-16T14:05:25.210Z,90.40
2019-01-16T14:08:31.364Z,90.40
2019-01-16T14:11:37.743Z,90.60
2019-01-16T14:15:00.172Z,91.20
2019-01-16T14:18:06.543Z,91.40
2019-01-16T14:21:18.312Z,91.60
2019-01-16T14:24:27.091Z,92.00
2019-01-16T14:27:39.303Z,91.60
2019-01-16T14:30:51.191Z,91.10
2019-01-16T14:34:00.249Z,91.40
2019-01-16T14:37:16.405Z,91.20
2019-01-16T14:40:28.514Z,91.10
2019-01-16T14:43:43.559Z,91.80
2019-01-16T14:46:55.888Z,92.60
2019-01-16T14:50:19.999Z,92.00
2019-01-16T14:53:26.337Z,91.00
2019-01-16T14:56:35.084Z,90.70
2019-01-16T14:59:56.507Z,90.60
2019-01-16T15:03:11.972Z,89.90
2019-01-16T15:06:18.052Z,89.60
2019-01-16T15:09:30.131Z,89.00
2019-01-16T15:12:52.578Z,89.80
2019-01-16T15:15:58.658Z,91.60
2019-01-16T15:19:05.025Z,90.00
2019-01-16T15:22:13.842Z,90.90
2019-01-16T15:25:36.487Z,92.30
2019-01-16T15:28:42.864Z,93.30
2019-01-16T15:32:04.212Z,93.70
2019-01-16T15:35:12.612Z,92.70
2019-01-16T15:38:33.644Z,91.50
2019-01-16T15:41:56.009Z,92.40
2019-01-16T15:45:17.673Z,93.60
2019-01-16T15:48:39.005Z,93.60
2019-01-16T15:51:43.212Z,93.40
2019-01-16T15:54:55.288Z,94.10
2019-01-16T15:58:13.210Z,94.60
2019-01-16T16:01:37.557Z,94.90
2019-01-16T16:04:52.335Z,94.90
2019-01-16T16:08:06.857Z,95.10
2019-01-16T16:11:22.052Z,95.40
2019-01-16T16:14:26.249Z,95.70
2019-01-16T16:17:41.346Z,95.90
2019-01-16T16:20:48.328Z,96.10
2019-01-16T16:23:54.395Z,96.00
2019-01-16T16:27:03.170Z,96.30
2019-01-16T16:30:17.060Z,96.50
2019-01-16T16:33:23.136Z,96.60
2019-01-16T16:36:27.332Z,96.50
2019-01-16T16:39:37.608Z,96.70
2019-01-16T16:42:46.528Z,96.60
2019-01-16T16:45:58.758Z,97.00
2019-01-16T16:49:04.841Z,96.80
2019-01-16T16:52:11.279Z,97.00
2019-01-16T16:55:29.723Z,97.30
2019-01-16T16:58:39.162Z,96.90
2019-01-16T17:01:45.243Z,96.90
2019-01-16T17:04:51.602Z,97.20
2019-01-16T17:08:07.192Z,97.10
2019-01-16T17:11:13.550Z,97.10
2019-01-16T17:14:22.044Z,97.10
2019-01-16T17:17:28.195Z,97.00
2019-01-16T17:20:52.289Z,96.70
2019-01-16T17:24:07.266Z,97.20
2019-01-16T17:27:13.661Z,97.10
2019-01-16T17:30:34.772Z,96.90
2019-01-16T17:33:56.408Z,96.90
2019-01-16T17:37:00.930Z,97.20
2019-01-16T17:40:21.017Z,97.40
2019-01-16T17:43:32.557Z,97.30
2019-01-16T17:46:50.319Z,97.20
2019-01-16T17:49:59.569Z,97.20
2019-01-16T17:53:05.951Z,97.00
2019-01-16T17:56:17.814Z,96.50
2019-01-16T17:59:40.088Z,96.80
2019-01-16T18:02:57.953Z,97.10
2019-01-16T18:06:12.780Z,97.20
2019-01-16T18:09:19.170Z,96.70
2019-01-16T18:12:31.066Z,96.90
2019-01-16T18:15:37.147Z,97.00
2019-01-16T18:18:46.155Z,97.00
2019-01-16T18:21:50.680Z,97.30
2019-01-16T18:24:56.757Z,97.20
2019-01-16T18:28:05.514Z,97.30
2019-01-16T18:31:23.935Z,96.80
2019-01-16T18:34:30.294Z,96.80
2019-01-16T18:37:45.262Z,96.20
2019-01-16T18:40:57.161Z,95.30
2019-01-16T18:44:12.745Z,94.80
2019-01-16T18:47:18.814Z,94.40
2019-01-16T18:50:25.447Z,93.90
2019-01-16T18:53:29.625Z,93.30
2019-01-16T18:56:52.026Z,93.20
2019-01-16T19:00:16.353Z,92.90
2019-01-16T19:03:38.678Z,92.50
2019-01-16T19:06:50.627Z,92.70
2019-01-16T19:10:02.461Z,92.70
2019-01-16T19:13:24.615Z,92.50
2019-01-16T19:16:39.524Z,92.50
2019-01-16T19:19:51.588Z,92.40
2019-01-16T19:23:06.166Z,92.70
2019-01-16T19:26:28.305Z,92.80
2019-01-16T19:29:37.976Z,93.30
2019-01-16T19:32:44.302Z,93.40
2019-01-16T19:36:05.446Z,93.70
2019-01-16T19:39:11.512Z,92.80
2019-01-16T19:42:23.260Z,93.50
2019-01-16T19:45:29.408Z,92.60
2019-01-16T19:48:53.737Z,92.90
2019-01-16T19:52:05.665Z,92.30
2019-01-16T19:55:17.917Z,92.80
2019-01-16T19:58:24.840Z,93.10
2019-01-16T20:01:39.404Z,93.30
2019-01-16T20:04:51.085Z,93.00
2019-01-16T20:07:57.442Z,92.60
2019-01-16T20:11:20.099Z,92.90
2019-01-16T20:14:42.948Z,92.60
2019-01-16T20:17:49.024Z,92.70
2019-01-16T20:21:11.967Z,93.20
2019-01-16T20:24:34.624Z,93.00
2019-01-16T20:27:38.822Z,92.60
2019-01-16T20:34:43.608Z,92.50
2019-01-16T20:37:55.492Z,92.40
2019-01-16T20:41:07.655Z,92.30
2019-01-16T20:44:11.917Z,91.90
2019-01-16T20:47:27.331Z,92.50
2019-01-16T20:50:49.470Z,92.30
2019-01-16T20:54:10.664Z,92.20
2019-01-16T20:57:22.558Z,92.00
2019-01-16T21:00:46.652Z,92.20
2019-01-16T21:03:53.031Z,92.30
2019-01-16T21:07:08.558Z,92.20
2019-01-16T21:10:21.834Z,92.20
2019-01-16T21:13:28.760Z,92.20
2019-01-16T21:16:34.860Z,92.20
2019-01-16T21:19:39.315Z,92.10
2019-01-16T21:23:00.641Z,92.10
2019-01-16T21:26:23.752Z,92.10
2019-01-16T21:29:33.589Z,91.90
2019-01-16T21:32:42.581Z,92.10
2019-01-16T21:35:51.629Z,92.30
2019-01-16T21:39:06.582Z,92.20
2019-01-16T21:42:12.952Z,92.20
2019-01-16T21:45:26.443Z,92.50
2019-01-16T21:48:35.467Z,92.40
2019-01-16T21:51:44.446Z,92.50
2019-01-16T21:54:54.383Z,92.90
2019-01-16T21:58:15.820Z,92.60
2019-01-16T22:01:24.853Z,92.70
2019-01-16T22:04:33.887Z,92.80
2019-01-16T22:07:42.623Z,92.90
2019-01-16T22:10:56.094Z,93.10
2019-01-16T22:14:11.226Z,93.20
2019-01-16T22:17:29.886Z,93.30
2019-01-16T22:20:50.705Z,93.40
2019-01-16T22:24:04.347Z,93.30
2019-01-16T22:27:10.418Z,93.30
2019-01-16T22:30:19.607Z,93.40
2019-01-16T22:33:25.715Z,93.80
2019-01-16T22:36:31.799Z,93.60
2019-01-16T22:39:37.884Z,93.90
2019-01-16T22:42:58.675Z,94.00
2019-01-16T22:46:07.676Z,94.10
2019-01-16T22:49:14.050Z,94.00
2019-01-16T22:52:28.628Z,94.60
2019-01-16T22:55:44.184Z,94.80
2019-01-16T22:58:50.619Z,94.70
2019-01-16T23:01:59.663Z,95.00
2019-01-16T23:05:12.602Z,95.00
2019-01-16T23:08:21.311Z,95.30
2019-01-16T23:11:33.223Z,95.40
2019-01-16T23:14:45.271Z,95.60
2019-01-16T23:18:03.415Z,95.60
2019-01-16T23:21:25.709Z,95.70
2019-01-16T23:24:38.114Z,95.80
2019-01-16T23:27:44.594Z,95.90
2019-01-16T23:30:53.926Z,96.10
2019-01-16T23:34:05.925Z,95.70
2019-01-16T23:37:17.435Z,96.00
2019-01-16T23:40:21.959Z,96.00
2019-01-16T23:43:37.528Z,95.80
2019-01-16T23:47:00.077Z,95.90
2019-01-16T23:50:21.720Z,95.90
2019-01-16T23:53:28.070Z,96.20
2019-01-16T23:56:37.021Z,96.20
2019-01-16T23:59:59.409Z,96.20
